Time;durP1;ratioP1;P1;durP2;ratioP2;P2;SDS_P1;SDS_P2;PMS_P1;PMS_P2;Temp;Humidity;BMP_temperature;BMP_pressure;BME280_temperature;BME280_humidity;BME280_pressure;Samples;Min_cycle;Max_cycle;Signal;HPM_P1;HPM_P2
2024/03/05 00:02:21;;;;;;;24.8;13.5;;;;;;;;;;;;;
2024/03/05 00:04:46;;;;;;;24;14.2;;;;;;;;;;;;;
2024/03/05 00:07:11;;;;;;;26.5;14.7;;;;;;;;;;;;;
2024/03/05 00:09:36;;;;;;;23.7;14;;;;;;;;;;;;;
2024/03/05 00:12:01;;;;;;;26.5;15.2;;;;;;;;;;;;;
2024/03/05 00:14:26;;;;;;;24.8;13.9;;;;;;;;;;;;;
2024/03/05 00:16:51;;;;;;;24.4;14.7;;;;;;;;;;;;;
2024/03/05 00:19:16;;;;;;;27.4;15.1;;;;;;;;;;;;;
2024/03/05 00:21:42;;;;;;;26.1;15.1;;;;;;;;;;;;;
2024/03/05 00:24:07;;;;;;;24.6;14.5;;;;;;;;;;;;;
2024/03/05 00:26:32;;;;;;;26.2;15.3;;;;;;;;;;;;;
2024/03/05 00:29:01;;;;;;;28.2;16.4;;;;;;;;;;;;;
2024/03/05 00:31:22;;;;;;;26.2;14.5;;;;;;;;;;;;;
2024/03/05 00:33:47;;;;;;;29.7;15.9;;;;;;;;;;;;;
2024/03/05 00:36:13;;;;;;;29.5;16.3;;;;;;;;;;;;;
2024/03/05 00:38:37;;;;;;;26.1;14.9;;;;;;;;;;;;;
2024/03/05 00:41:02;;;;;;;26.1;14.8;;;;;;;;;;;;;
2024/03/05 00:43:27;;;;;;;26.8;15.6;;;;;;;;;;;;;
2024/03/05 00:45:52;;;;;;;32;16.4;;;;;;;;;;;;;
2024/03/05 00:48:19;;;;;;;30.8;16.4;;;;;;;;;;;;;
2024/03/05 00:50:42;;;;;;;27.7;15.7;;;;;;;;;;;;;
2024/03/05 00:53:08;;;;;;;30.4;16;;;;;;;;;;;;;
2024/03/05 00:55:33;;;;;;;29.6;16.5;;;;;;;;;;;;;
2024/03/05 00:57:58;;;;;;;31.9;17.2;;;;;;;;;;;;;
2024/03/05 01:00:24;;;;;;;29.6;16.4;;;;;;;;;;;;;
2024/03/05 01:02:48;;;;;;;30.6;16.9;;;;;;;;;;;;;
2024/03/05 01:05:13;;;;;;;32;16.5;;;;;;;;;;;;;
2024/03/05 01:07:38;;;;;;;31.5;17.5;;;;;;;;;;;;;
2024/03/05 01:10:03;;;;;;;32.8;16.5;;;;;;;;;;;;;
2024/03/05 01:12:28;;;;;;;37;17;;;;;;;;;;;;;
2024/03/05 01:14:54;;;;;;;31.6;16.4;;;;;;;;;;;;;
2024/03/05 01:17:19;;;;;;;31.5;16.3;;;;;;;;;;;;;
2024/03/05 01:19:46;;;;;;;30.7;16.6;;;;;;;;;;;;;
2024/03/05 01:22:09;;;;;;;30.6;16.5;;;;;;;;;;;;;
2024/03/05 01:24:34;;;;;;;35.6;18.3;;;;;;;;;;;;;
2024/03/05 01:26:59;;;;;;;33.9;17.7;;;;;;;;;;;;;
2024/03/05 01:29:24;;;;;;;31.1;17.2;;;;;;;;;;;;;
2024/03/05 01:31:54;;;;;;;32;17;;;;;;;;;;;;;
2024/03/05 01:34:14;;;;;;;32.9;17.1;;;;;;;;;;;;;
2024/03/05 01:36:40;;;;;;;33.4;18.2;;;;;;;;;;;;;
2024/03/05 01:39:05;;;;;;;32.2;17.6;;;;;;;;;;;;;
2024/03/05 01:41:30;;;;;;;33.5;17.1;;;;;;;;;;;;;
2024/03/05 01:43:55;;;;;;;32.8;17.6;;;;;;;;;;;;;
2024/03/05 01:46:20;;;;;;;33.5;17.5;;;;;;;;;;;;;
2024/03/05 01:48:45;;;;;;;33.7;17.8;;;;;;;;;;;;;
2024/03/05 01:51:10;;;;;;;31.8;17.5;;;;;;;;;;;;;
2024/03/05 01:53:35;;;;;;;34.3;17.6;;;;;;;;;;;;;
2024/03/05 01:56:00;;;;;;;34.8;19.5;;;;;;;;;;;;;
2024/03/05 01:58:25;;;;;;;34.3;18.4;;;;;;;;;;;;;
2024/03/05 02:00:50;;;;;;;33.7;19.1;;;;;;;;;;;;;
2024/03/05 02:03:19;;;;;;;31.7;18.7;;;;;;;;;;;;;
2024/03/05 02:05:43;;;;;;;32.5;19.2;;;;;;;;;;;;;
2024/03/05 02:08:08;;;;;;;35;19.9;;;;;;;;;;;;;
2024/03/05 02:10:33;;;;;;;37.4;19.7;;;;;;;;;;;;;
2024/03/05 02:12:58;;;;;;;32.8;18.6;;;;;;;;;;;;;
2024/03/05 02:15:23;;;;;;;34.9;19.6;;;;;;;;;;;;;
2024/03/05 02:17:49;;;;;;;38.1;19.9;;;;;;;;;;;;;
2024/03/05 02:20:14;;;;;;;38.4;20.9;;;;;;;;;;;;;
2024/03/05 02:22:39;;;;;;;33.7;19.4;;;;;;;;;;;;;
2024/03/05 02:25:05;;;;;;;36.5;19.9;;;;;;;;;;;;;
2024/03/05 02:27:29;;;;;;;37;19.8;;;;;;;;;;;;;
2024/03/05 02:29:54;;;;;;;34.3;20.7;;;;;;;;;;;;;
2024/03/05 02:32:19;;;;;;;37;20.4;;;;;;;;;;;;;
2024/03/05 02:34:45;;;;;;;35.3;19.9;;;;;;;;;;;;;
2024/03/05 02:37:10;;;;;;;35.2;19.9;;;;;;;;;;;;;
2024/03/05 02:39:35;;;;;;;40.3;20.3;;;;;;;;;;;;;
2024/03/05 02:42:01;;;;;;;40;21.6;;;;;;;;;;;;;
2024/03/05 02:44:26;;;;;;;36.5;19.6;;;;;;;;;;;;;
2024/03/05 02:46:50;;;;;;;39.6;20.7;;;;;;;;;;;;;
2024/03/05 02:49:15;;;;;;;36.2;20;;;;;;;;;;;;;
2024/03/05 02:51:41;;;;;;;37.5;20;;;;;;;;;;;;;
2024/03/05 02:54:06;;;;;;;38.7;20.8;;;;;;;;;;;;;
2024/03/05 02:56:31;;;;;;;36.1;19.7;;;;;;;;;;;;;
2024/03/05 02:58:56;;;;;;;41;20.6;;;;;;;;;;;;;
2024/03/05 03:01:21;;;;;;;40.1;21.2;;;;;;;;;;;;;
2024/03/05 03:03:46;;;;;;;35.8;20.1;;;;;;;;;;;;;
2024/03/05 03:06:11;;;;;;;38.5;20;;;;;;;;;;;;;
2024/03/05 03:08:36;;;;;;;37.1;20.3;;;;;;;;;;;;;
2024/03/05 03:11:01;;;;;;;34.5;20;;;;;;;;;;;;;
2024/03/05 03:13:26;;;;;;;35.7;19.9;;;;;;;;;;;;;
2024/03/05 03:15:53;;;;;;;36.7;19.8;;;;;;;;;;;;;
2024/03/05 03:18:17;;;;;;;39;21.4;;;;;;;;;;;;;
2024/03/05 03:20:42;;;;;;;37.8;20.5;;;;;;;;;;;;;
2024/03/05 03:23:07;;;;;;;38.9;20.3;;;;;;;;;;;;;
2024/03/05 03:25:32;;;;;;;37;20.8;;;;;;;;;;;;;
2024/03/05 03:27:59;;;;;;;36.3;19.7;;;;;;;;;;;;;
2024/03/05 03:30:24;;;;;;;35.1;19.8;;;;;;;;;;;;;
2024/03/05 03:32:49;;;;;;;36.9;19.5;;;;;;;;;;;;;
2024/03/05 03:35:13;;;;;;;35.3;19.7;;;;;;;;;;;;;
2024/03/05 03:37:38;;;;;;;39.1;20.4;;;;;;;;;;;;;
2024/03/05 03:40:07;;;;;;;34.7;18.8;;;;;;;;;;;;;
2024/03/05 03:42:29;;;;;;;35.1;19.3;;;;;;;;;;;;;
2024/03/05 03:45:07;;;;;;;40.4;20.8;;;;;;;;;;;;;
2024/03/05 03:47:31;;;;;;;35.5;20.2;;;;;;;;;;;;;
2024/03/05 03:49:56;;;;;;;35.9;20.1;;;;;;;;;;;;;
2024/03/05 03:52:22;;;;;;;38.6;20.3;;;;;;;;;;;;;
2024/03/05 03:54:48;;;;;;;41.6;21.1;;;;;;;;;;;;;
2024/03/05 03:57:11;;;;;;;37.1;19.3;;;;;;;;;;;;;
2024/03/05 03:59:37;;;;;;;37.7;20;;;;;;;;;;;;;
2024/03/05 04:03:03;;;;;;;36.3;20.6;;;;;;;;;;;;;
2024/03/05 04:05:28;;;;;;;37.8;20.8;;;;;;;;;;;;;
2024/03/05 04:07:54;;;;;;;37.6;20.6;;;;;;;;;;;;;
2024/03/05 04:10:19;;;;;;;39.7;20.7;;;;;;;;;;;;;
2024/03/05 04:12:44;;;;;;;39.9;20.9;;;;;;;;;;;;;
2024/03/05 04:15:12;;;;;;;42.5;22;;;;;;;;;;;;;
2024/03/05 04:17:36;;;;;;;36.8;20.8;;;;;;;;;;;;;
2024/03/05 04:19:59;;;;;;;37.1;20.9;;;;;;;;;;;;;
2024/03/05 04:22:24;;;;;;;38.7;21;;;;;;;;;;;;;
2024/03/05 04:24:56;;;;;;;41.6;21.6;;;;;;;;;;;;;
2024/03/05 04:27:18;;;;;;;39.2;22.1;;;;;;;;;;;;;
2024/03/05 04:29:47;;;;;;;39.3;21;;;;;;;;;;;;;
2024/03/05 04:32:31;;;;;;;36.7;20.9;;;;;;;;;;;;;
2024/03/05 04:35:23;;;;;;;38;21;;;;;;;;;;;;;
2024/03/05 04:38:00;;;;;;;38.8;21.8;;;;;;;;;;;;;
2024/03/05 04:40:24;;;;;;;41.3;22.7;;;;;;;;;;;;;
2024/03/05 04:42:49;;;;;;;41.7;22.4;;;;;;;;;;;;;
2024/03/05 04:45:15;;;;;;;41.7;21.7;;;;;;;;;;;;;
2024/03/05 04:47:40;;;;;;;38.9;21.2;;;;;;;;;;;;;
2024/03/05 04:50:05;;;;;;;42.8;21.7;;;;;;;;;;;;;
2024/03/05 04:52:30;;;;;;;41.2;22;;;;;;;;;;;;;
2024/03/05 04:54:56;;;;;;;40.3;23.3;;;;;;;;;;;;;
2024/03/05 04:57:20;;;;;;;40.7;22.1;;;;;;;;;;;;;
2024/03/05 04:59:45;;;;;;;43.3;23.3;;;;;;;;;;;;;
2024/03/05 05:02:10;;;;;;;42.7;21.9;;;;;;;;;;;;;
2024/03/05 05:04:37;;;;;;;42.1;21.7;;;;;;;;;;;;;
2024/03/05 05:07:01;;;;;;;40.4;22.5;;;;;;;;;;;;;
2024/03/05 05:09:26;;;;;;;42.7;22.4;;;;;;;;;;;;;
2024/03/05 05:11:51;;;;;;;41.3;22.3;;;;;;;;;;;;;
2024/03/05 05:14:16;;;;;;;44.7;22.7;;;;;;;;;;;;;
2024/03/05 05:16:41;;;;;;;38;21;;;;;;;;;;;;;
2024/03/05 05:19:06;;;;;;;41.7;22.2;;;;;;;;;;;;;
2024/03/05 05:21:31;;;;;;;39.2;21;;;;;;;;;;;;;
2024/03/05 05:23:56;;;;;;;44.4;22.2;;;;;;;;;;;;;
2024/03/05 05:26:22;;;;;;;42.1;22.4;;;;;;;;;;;;;
2024/03/05 05:28:46;;;;;;;41.6;21.6;;;;;;;;;;;;;
2024/03/05 05:31:12;;;;;;;40.6;21.5;;;;;;;;;;;;;
2024/03/05 05:33:37;;;;;;;42.1;21.5;;;;;;;;;;;;;
2024/03/05 05:36:02;;;;;;;45.8;22.8;;;;;;;;;;;;;
2024/03/05 05:38:27;;;;;;;42.5;23;;;;;;;;;;;;;
2024/03/05 05:40:52;;;;;;;41.8;21.6;;;;;;;;;;;;;
2024/03/05 05:43:17;;;;;;;41.2;23.2;;;;;;;;;;;;;
2024/03/05 05:45:42;;;;;;;40.2;22.3;;;;;;;;;;;;;
2024/03/05 05:48:23;;;;;;;41.4;22.9;;;;;;;;;;;;;
2024/03/05 05:50:32;;;;;;;39.3;22.1;;;;;;;;;;;;;
2024/03/05 05:52:58;;;;;;;41.8;21.3;;;;;;;;;;;;;
2024/03/05 05:55:24;;;;;;;45.7;23.8;;;;;;;;;;;;;
2024/03/05 05:57:48;;;;;;;41.6;21.8;;;;;;;;;;;;;
2024/03/05 06:00:22;;;;;;;43.8;22.9;;;;;;;;;;;;;
2024/03/05 06:02:38;;;;;;;41.7;22.7;;;;;;;;;;;;;
2024/03/05 06:05:08;;;;;;;40.1;22.1;;;;;;;;;;;;;
2024/03/05 06:07:28;;;;;;;40.8;22.2;;;;;;;;;;;;;
2024/03/05 06:09:53;;;;;;;42.4;22.3;;;;;;;;;;;;;
2024/03/05 06:12:19;;;;;;;42;22.5;;;;;;;;;;;;;
2024/03/05 06:14:44;;;;;;;41.6;21.8;;;;;;;;;;;;;
2024/03/05 06:17:09;;;;;;;42.4;22.7;;;;;;;;;;;;;
2024/03/05 06:19:35;;;;;;;39.5;22;;;;;;;;;;;;;
2024/03/05 06:21:59;;;;;;;41.1;21.8;;;;;;;;;;;;;
2024/03/05 06:24:24;;;;;;;38.8;21.9;;;;;;;;;;;;;
2024/03/05 06:26:49;;;;;;;43.4;22.4;;;;;;;;;;;;;
2024/03/05 06:29:14;;;;;;;43;22.4;;;;;;;;;;;;;
2024/03/05 06:31:40;;;;;;;38;21.1;;;;;;;;;;;;;
2024/03/05 06:34:10;;;;;;;40.5;22.3;;;;;;;;;;;;;
2024/03/05 06:36:30;;;;;;;44.1;22.9;;;;;;;;;;;;;
2024/03/05 06:38:58;;;;;;;43.4;23.2;;;;;;;;;;;;;
2024/03/05 06:41:25;;;;;;;43.6;22.2;;;;;;;;;;;;;
2024/03/05 06:43:47;;;;;;;40.5;22.7;;;;;;;;;;;;;
2024/03/05 06:46:13;;;;;;;42.5;22.1;;;;;;;;;;;;;
2024/03/05 06:48:38;;;;;;;41.1;22.2;;;;;;;;;;;;;
2024/03/05 06:51:04;;;;;;;39.9;22.1;;;;;;;;;;;;;
2024/03/05 06:58:16;;;;;;;39.1;20.8;;;;;;;;;;;;;
2024/03/05 07:00:41;;;;;;;41.2;20.2;;;;;;;;;;;;;
2024/03/05 07:03:06;;;;;;;41;21.4;;;;;;;;;;;;;
2024/03/05 07:05:32;;;;;;;46.1;22.5;;;;;;;;;;;;;
2024/03/05 07:07:56;;;;;;;42.6;22.5;;;;;;;;;;;;;
2024/03/05 07:10:22;;;;;;;40.3;22.1;;;;;;;;;;;;;
2024/03/05 07:12:49;;;;;;;42.2;22.6;;;;;;;;;;;;;
2024/03/05 07:15:14;;;;;;;40.2;22.3;;;;;;;;;;;;;
2024/03/05 07:17:38;;;;;;;38.3;19.8;;;;;;;;;;;;;
2024/03/05 07:20:04;;;;;;;40.5;21.2;;;;;;;;;;;;;
2024/03/05 07:22:28;;;;;;;43.6;22.2;;;;;;;;;;;;;
2024/03/05 07:24:52;;;;;;;40;21.4;;;;;;;;;;;;;
2024/03/05 07:27:17;;;;;;;40;21.8;;;;;;;;;;;;;
2024/03/05 07:29:42;;;;;;;37;21.5;;;;;;;;;;;;;
2024/03/05 07:32:07;;;;;;;39.4;21.5;;;;;;;;;;;;;
2024/03/05 07:34:35;;;;;;;39.1;22.1;;;;;;;;;;;;;
2024/03/05 07:36:57;;;;;;;38.8;21.4;;;;;;;;;;;;;
2024/03/05 07:39:24;;;;;;;44.1;22.6;;;;;;;;;;;;;
2024/03/05 07:41:48;;;;;;;40.6;22.4;;;;;;;;;;;;;
2024/03/05 07:44:13;;;;;;;43.7;22.5;;;;;;;;;;;;;
2024/03/05 07:46:38;;;;;;;41.7;21.5;;;;;;;;;;;;;
2024/03/05 07:49:03;;;;;;;40;22.1;;;;;;;;;;;;;
2024/03/05 07:51:30;;;;;;;39.2;20.7;;;;;;;;;;;;;
2024/03/05 07:53:53;;;;;;;43.2;22;;;;;;;;;;;;;
2024/03/05 07:56:18;;;;;;;40.4;22.9;;;;;;;;;;;;;
2024/03/05 07:58:43;;;;;;;41;21.3;;;;;;;;;;;;;
2024/03/05 08:01:09;;;;;;;39.9;22.8;;;;;;;;;;;;;
2024/03/05 08:03:33;;;;;;;42.1;22.5;;;;;;;;;;;;;
2024/03/05 08:05:59;;;;;;;40.5;21.7;;;;;;;;;;;;;
2024/03/05 08:08:25;;;;;;;40.3;22.2;;;;;;;;;;;;;
2024/03/05 08:10:50;;;;;;;35.7;21.2;;;;;;;;;;;;;
2024/03/05 08:13:16;;;;;;;39.2;21.4;;;;;;;;;;;;;
2024/03/05 08:15:40;;;;;;;38.5;21.3;;;;;;;;;;;;;
2024/03/05 08:18:04;;;;;;;35.7;22;;;;;;;;;;;;;
2024/03/05 08:20:30;;;;;;;39;21.3;;;;;;;;;;;;;
2024/03/05 08:22:55;;;;;;;38.2;21.3;;;;;;;;;;;;;
2024/03/05 08:25:21;;;;;;;42.7;22.5;;;;;;;;;;;;;
2024/03/05 08:27:45;;;;;;;39.9;21.9;;;;;;;;;;;;;
2024/03/05 08:30:10;;;;;;;35.3;21.1;;;;;;;;;;;;;
2024/03/05 08:32:36;;;;;;;34.3;20.6;;;;;;;;;;;;;
2024/03/05 08:35:01;;;;;;;37.5;21.2;;;;;;;;;;;;;
2024/03/05 08:37:26;;;;;;;40.9;22.2;;;;;;;;;;;;;
2024/03/05 08:39:51;;;;;;;39.7;21.3;;;;;;;;;;;;;
2024/03/05 08:42:16;;;;;;;38.7;20.8;;;;;;;;;;;;;
2024/03/05 08:44:41;;;;;;;40.4;22.8;;;;;;;;;;;;;
2024/03/05 08:47:07;;;;;;;36.4;20.4;;;;;;;;;;;;;
2024/03/05 08:49:31;;;;;;;40.3;21.9;;;;;;;;;;;;;
2024/03/05 08:51:58;;;;;;;37.1;20.7;;;;;;;;;;;;;
2024/03/05 08:54:22;;;;;;;40.6;21;;;;;;;;;;;;;
2024/03/05 08:56:47;;;;;;;40.5;21.2;;;;;;;;;;;;;
2024/03/05 08:59:12;;;;;;;38;20.7;;;;;;;;;;;;;
2024/03/05 09:01:37;;;;;;;41.8;21.9;;;;;;;;;;;;;
2024/03/05 09:04:05;;;;;;;39;21.5;;;;;;;;;;;;;
2024/03/05 09:06:28;;;;;;;40.4;21.9;;;;;;;;;;;;;
2024/03/05 09:08:52;;;;;;;37.5;21;;;;;;;;;;;;;
2024/03/05 09:11:17;;;;;;;40.8;21.8;;;;;;;;;;;;;
2024/03/05 09:13:45;;;;;;;35.9;19.6;;;;;;;;;;;;;
2024/03/05 09:16:08;;;;;;;38.6;21.2;;;;;;;;;;;;;
2024/03/05 09:18:34;;;;;;;37.7;21.4;;;;;;;;;;;;;
2024/03/05 09:20:58;;;;;;;37.1;20.1;;;;;;;;;;;;;
2024/03/05 09:23:23;;;;;;;33.2;19.4;;;;;;;;;;;;;
2024/03/05 09:25:48;;;;;;;37.3;22.1;;;;;;;;;;;;;
2024/03/05 09:28:13;;;;;;;35.2;19.9;;;;;;;;;;;;;
2024/03/05 09:30:38;;;;;;;33.6;18.5;;;;;;;;;;;;;
2024/03/05 09:33:08;;;;;;;34.5;19.4;;;;;;;;;;;;;
2024/03/05 09:35:28;;;;;;;35.1;19.4;;;;;;;;;;;;;
2024/03/05 09:37:54;;;;;;;31.2;17.7;;;;;;;;;;;;;
2024/03/05 09:40:20;;;;;;;34.2;18.7;;;;;;;;;;;;;
2024/03/05 09:42:44;;;;;;;32.6;18.9;;;;;;;;;;;;;
2024/03/05 09:45:09;;;;;;;37;19.4;;;;;;;;;;;;;
2024/03/05 09:47:35;;;;;;;30.4;18.2;;;;;;;;;;;;;
2024/03/05 09:49:59;;;;;;;31.2;17.7;;;;;;;;;;;;;
2024/03/05 09:52:24;;;;;;;30.7;17.4;;;;;;;;;;;;;
2024/03/05 09:54:49;;;;;;;30.9;17.9;;;;;;;;;;;;;
2024/03/05 09:57:15;;;;;;;31.8;18.4;;;;;;;;;;;;;
2024/03/05 09:59:40;;;;;;;33;18;;;;;;;;;;;;;
2024/03/05 10:02:08;;;;;;;30.5;17.2;;;;;;;;;;;;;
2024/03/05 10:04:31;;;;;;;30.3;17.3;;;;;;;;;;;;;
2024/03/05 10:06:55;;;;;;;26;15.4;;;;;;;;;;;;;
2024/03/05 10:09:20;;;;;;;28.1;15.7;;;;;;;;;;;;;
2024/03/05 10:11:45;;;;;;;27.3;15.9;;;;;;;;;;;;;
2024/03/05 10:14:10;;;;;;;24.5;15.1;;;;;;;;;;;;;
2024/03/05 10:16:36;;;;;;;26.3;15.5;;;;;;;;;;;;;
2024/03/05 10:19:03;;;;;;;27.2;15;;;;;;;;;;;;;
2024/03/05 10:21:26;;;;;;;24.2;14.6;;;;;;;;;;;;;
2024/03/05 10:23:51;;;;;;;22.1;13;;;;;;;;;;;;;
2024/03/05 10:26:16;;;;;;;22.1;13.4;;;;;;;;;;;;;
2024/03/05 10:28:41;;;;;;;22.5;13.7;;;;;;;;;;;;;
2024/03/05 10:31:06;;;;;;;23.1;13.6;;;;;;;;;;;;;
2024/03/05 10:33:31;;;;;;;22.6;13.7;;;;;;;;;;;;;
2024/03/05 10:35:57;;;;;;;26;14.2;;;;;;;;;;;;;
2024/03/05 10:38:23;;;;;;;20.9;13.4;;;;;;;;;;;;;
2024/03/05 10:40:47;;;;;;;21.4;13.5;;;;;;;;;;;;;
2024/03/05 10:43:15;;;;;;;22.6;13.7;;;;;;;;;;;;;
2024/03/05 10:45:38;;;;;;;22.6;13.4;;;;;;;;;;;;;
2024/03/05 10:48:02;;;;;;;22.1;13.3;;;;;;;;;;;;;
2024/03/05 10:50:28;;;;;;;23.7;14;;;;;;;;;;;;;
2024/03/05 10:52:53;;;;;;;21.3;13.1;;;;;;;;;;;;;
2024/03/05 10:55:20;;;;;;;22.3;13.7;;;;;;;;;;;;;
2024/03/05 10:58:13;;;;;;;22.6;13.4;;;;;;;;;;;;;
2024/03/05 11:00:14;;;;;;;22.1;13.6;;;;;;;;;;;;;
2024/03/05 11:02:33;;;;;;;25.5;13.8;;;;;;;;;;;;;
2024/03/05 11:04:58;;;;;;;23.3;12.6;;;;;;;;;;;;;
2024/03/05 11:07:23;;;;;;;23.2;13.9;;;;;;;;;;;;;
2024/03/05 11:09:48;;;;;;;20.9;12.5;;;;;;;;;;;;;
2024/03/05 11:12:14;;;;;;;23;13.2;;;;;;;;;;;;;
2024/03/05 11:14:38;;;;;;;22.7;13.2;;;;;;;;;;;;;
2024/03/05 11:17:04;;;;;;;22.6;13.1;;;;;;;;;;;;;
2024/03/05 11:19:29;;;;;;;21.4;13.2;;;;;;;;;;;;;
2024/03/05 11:21:54;;;;;;;22.3;12.8;;;;;;;;;;;;;
2024/03/05 11:24:21;;;;;;;23.7;13.7;;;;;;;;;;;;;
2024/03/05 11:26:44;;;;;;;21;13.3;;;;;;;;;;;;;
2024/03/05 11:29:09;;;;;;;19.4;12.2;;;;;;;;;;;;;
2024/03/05 11:31:34;;;;;;;21.2;13.3;;;;;;;;;;;;;
2024/03/05 11:34:00;;;;;;;20.1;12.4;;;;;;;;;;;;;
2024/03/05 11:36:24;;;;;;;22.3;13.3;;;;;;;;;;;;;
2024/03/05 11:38:49;;;;;;;19.9;13.3;;;;;;;;;;;;;
2024/03/05 11:41:14;;;;;;;20.1;12.2;;;;;;;;;;;;;
2024/03/05 11:43:41;;;;;;;20.5;12.2;;;;;;;;;;;;;
2024/03/05 11:46:04;;;;;;;23.2;13.3;;;;;;;;;;;;;
2024/03/05 11:48:30;;;;;;;21.3;12.7;;;;;;;;;;;;;
2024/03/05 11:50:55;;;;;;;20.8;12.8;;;;;;;;;;;;;
2024/03/05 11:53:22;;;;;;;20.3;13.4;;;;;;;;;;;;;
2024/03/05 11:55:46;;;;;;;20.3;13.3;;;;;;;;;;;;;
2024/03/05 11:58:11;;;;;;;20.8;13.3;;;;;;;;;;;;;
2024/03/05 12:00:35;;;;;;;21.8;13.8;;;;;;;;;;;;;
2024/03/05 12:03:01;;;;;;;20.2;13;;;;;;;;;;;;;
2024/03/05 12:05:25;;;;;;;20.6;12.9;;;;;;;;;;;;;
2024/03/05 12:07:51;;;;;;;20;13.5;;;;;;;;;;;;;
2024/03/05 12:10:16;;;;;;;19.6;13.5;;;;;;;;;;;;;
2024/03/05 12:12:41;;;;;;;21.8;13.7;;;;;;;;;;;;;
2024/03/05 12:15:06;;;;;;;21;13.7;;;;;;;;;;;;;
2024/03/05 12:17:31;;;;;;;19.8;13.2;;;;;;;;;;;;;
2024/03/05 12:19:56;;;;;;;20.1;13.2;;;;;;;;;;;;;
2024/03/05 12:22:22;;;;;;;20.3;13.3;;;;;;;;;;;;;
2024/03/05 12:24:46;;;;;;;20.2;13.4;;;;;;;;;;;;;
2024/03/05 12:27:12;;;;;;;20.8;13.9;;;;;;;;;;;;;
2024/03/05 12:29:37;;;;;;;19.9;12.5;;;;;;;;;;;;;
2024/03/05 12:32:02;;;;;;;23.3;12.8;;;;;;;;;;;;;
2024/03/05 12:34:28;;;;;;;21.2;12.7;;;;;;;;;;;;;
2024/03/05 12:36:54;;;;;;;20.7;12.5;;;;;;;;;;;;;
2024/03/05 12:39:17;;;;;;;18.6;12;;;;;;;;;;;;;
2024/03/05 12:41:42;;;;;;;18.8;12.1;;;;;;;;;;;;;
2024/03/05 12:44:07;;;;;;;19.5;12.1;;;;;;;;;;;;;
2024/03/05 12:46:33;;;;;;;16.9;11.5;;;;;;;;;;;;;
2024/03/05 12:48:58;;;;;;;17.3;11.3;;;;;;;;;;;;;
2024/03/05 12:51:23;;;;;;;19.1;11.6;;;;;;;;;;;;;
2024/03/05 12:53:48;;;;;;;19.4;11.8;;;;;;;;;;;;;
2024/03/05 12:56:15;;;;;;;16.8;11.6;;;;;;;;;;;;;
2024/03/05 12:58:38;;;;;;;17.6;11.2;;;;;;;;;;;;;
2024/03/05 13:01:03;;;;;;;16.9;11.4;;;;;;;;;;;;;
2024/03/05 13:03:29;;;;;;;17.5;11.9;;;;;;;;;;;;;
2024/03/05 13:05:53;;;;;;;17.4;11.1;;;;;;;;;;;;;
2024/03/05 13:08:19;;;;;;;14.8;9.8;;;;;;;;;;;;;
2024/03/05 13:10:46;;;;;;;13.9;9.1;;;;;;;;;;;;;
2024/03/05 13:13:09;;;;;;;12.3;8.5;;;;;;;;;;;;;
2024/03/05 13:15:34;;;;;;;10;6.9;;;;;;;;;;;;;
2024/03/05 13:17:59;;;;;;;8.4;6.1;;;;;;;;;;;;;
2024/03/05 13:20:24;;;;;;;7.4;5.3;;;;;;;;;;;;;
2024/03/05 13:22:49;;;;;;;8.8;5;;;;;;;;;;;;;
2024/03/05 13:25:15;;;;;;;7.2;4.9;;;;;;;;;;;;;
2024/03/05 13:27:39;;;;;;;7.3;4.9;;;;;;;;;;;;;
2024/03/05 13:30:04;;;;;;;6.1;4.6;;;;;;;;;;;;;
2024/03/05 13:32:29;;;;;;;7.1;4.9;;;;;;;;;;;;;
2024/03/05 13:34:55;;;;;;;6.9;4.8;;;;;;;;;;;;;
2024/03/05 13:37:21;;;;;;;6.7;4.9;;;;;;;;;;;;;
2024/03/05 13:39:45;;;;;;;7.7;5.9;;;;;;;;;;;;;
2024/03/05 13:42:10;;;;;;;8.6;5.6;;;;;;;;;;;;;
2024/03/05 13:44:35;;;;;;;9.5;6.7;;;;;;;;;;;;;
2024/03/05 13:47:00;;;;;;;8.8;5.9;;;;;;;;;;;;;
2024/03/05 13:49:25;;;;;;;8.6;6.5;;;;;;;;;;;;;
2024/03/05 13:51:51;;;;;;;9.1;6.4;;;;;;;;;;;;;
2024/03/05 13:54:18;;;;;;;9.8;6.5;;;;;;;;;;;;;
2024/03/05 13:56:42;;;;;;;9.3;6.4;;;;;;;;;;;;;
2024/03/05 13:59:09;;;;;;;9.9;6.6;;;;;;;;;;;;;
2024/03/05 14:01:31;;;;;;;8.2;6;;;;;;;;;;;;;
2024/03/05 14:03:56;;;;;;;8.1;5.3;;;;;;;;;;;;;
2024/03/05 14:06:21;;;;;;;8.3;5.6;;;;;;;;;;;;;
2024/03/05 14:08:46;;;;;;;7.3;5.4;;;;;;;;;;;;;
2024/03/05 14:11:13;;;;;;;8.5;5.5;;;;;;;;;;;;;
2024/03/05 14:13:36;;;;;;;7.7;5.2;;;;;;;;;;;;;
2024/03/05 14:16:06;;;;;;;7.1;4.8;;;;;;;;;;;;;
2024/03/05 14:18:27;;;;;;;7.1;4.4;;;;;;;;;;;;;
2024/03/05 14:20:52;;;;;;;6;4.1;;;;;;;;;;;;;
2024/03/05 14:23:16;;;;;;;5.1;3.7;;;;;;;;;;;;;
2024/03/05 14:25:43;;;;;;;5.9;4.1;;;;;;;;;;;;;
2024/03/05 14:28:07;;;;;;;5;3.7;;;;;;;;;;;;;
2024/03/05 14:30:32;;;;;;;4.6;3.7;;;;;;;;;;;;;
2024/03/05 14:32:59;;;;;;;5.2;3.5;;;;;;;;;;;;;
2024/03/05 14:35:22;;;;;;;6.1;3.7;;;;;;;;;;;;;
2024/03/05 14:37:47;;;;;;;6.5;3.6;;;;;;;;;;;;;
2024/03/05 14:40:14;;;;;;;4.2;3.2;;;;;;;;;;;;;
2024/03/05 14:42:37;;;;;;;4.8;3.5;;;;;;;;;;;;;
2024/03/05 14:45:03;;;;;;;3.5;2.9;;;;;;;;;;;;;
2024/03/05 14:47:29;;;;;;;4.8;3.8;;;;;;;;;;;;;
2024/03/05 14:49:53;;;;;;;4.2;2.8;;;;;;;;;;;;;
2024/03/05 14:52:18;;;;;;;4.4;2.9;;;;;;;;;;;;;
2024/03/05 14:54:43;;;;;;;3.7;3.1;;;;;;;;;;;;;
2024/03/05 14:57:09;;;;;;;5.5;3.1;;;;;;;;;;;;;
2024/03/05 14:59:33;;;;;;;3.8;2.8;;;;;;;;;;;;;
2024/03/05 15:01:59;;;;;;;4.1;2.9;;;;;;;;;;;;;
2024/03/05 15:04:26;;;;;;;3.7;3;;;;;;;;;;;;;
2024/03/05 15:06:49;;;;;;;3.9;2.7;;;;;;;;;;;;;
2024/03/05 15:09:14;;;;;;;5.7;3.1;;;;;;;;;;;;;
2024/03/05 15:11:39;;;;;;;3.3;2.9;;;;;;;;;;;;;
2024/03/05 15:14:05;;;;;;;4.2;2.9;;;;;;;;;;;;;
2024/03/05 15:16:30;;;;;;;5.6;3.3;;;;;;;;;;;;;
2024/03/05 15:18:57;;;;;;;4.9;3.5;;;;;;;;;;;;;
2024/03/05 15:21:21;;;;;;;4.4;3;;;;;;;;;;;;;
2024/03/05 15:23:45;;;;;;;4.3;2.9;;;;;;;;;;;;;
2024/03/05 15:26:11;;;;;;;3.8;2.5;;;;;;;;;;;;;
2024/03/05 15:28:36;;;;;;;6.8;4.3;;;;;;;;;;;;;
2024/03/05 15:31:03;;;;;;;3.2;2.7;;;;;;;;;;;;;
2024/03/05 15:33:25;;;;;;;3.3;2.2;;;;;;;;;;;;;
2024/03/05 15:35:51;;;;;;;4.4;3.4;;;;;;;;;;;;;
2024/03/05 15:38:17;;;;;;;6.4;4.7;;;;;;;;;;;;;
2024/03/05 15:40:41;;;;;;;2.8;2.4;;;;;;;;;;;;;
2024/03/05 15:43:06;;;;;;;3.9;2.8;;;;;;;;;;;;;
2024/03/05 15:45:32;;;;;;;4.3;3.4;;;;;;;;;;;;;
2024/03/05 15:47:56;;;;;;;5.7;3.7;;;;;;;;;;;;;
2024/03/05 15:50:22;;;;;;;4.9;3.4;;;;;;;;;;;;;
2024/03/05 15:52:46;;;;;;;4.5;3.4;;;;;;;;;;;;;
2024/03/05 15:55:12;;;;;;;5.5;3.5;;;;;;;;;;;;;
2024/03/05 15:57:53;;;;;;;4.5;3.2;;;;;;;;;;;;;
2024/03/05 16:00:11;;;;;;;4.5;3.2;;;;;;;;;;;;;
2024/03/05 16:02:27;;;;;;;4.5;3.3;;;;;;;;;;;;;
2024/03/05 16:04:54;;;;;;;4.1;3.2;;;;;;;;;;;;;
2024/03/05 16:07:17;;;;;;;4.6;3.2;;;;;;;;;;;;;
2024/03/05 16:09:42;;;;;;;7.3;4.2;;;;;;;;;;;;;
2024/03/05 16:12:08;;;;;;;6.1;4.6;;;;;;;;;;;;;
2024/03/05 16:14:33;;;;;;;5.1;4.1;;;;;;;;;;;;;
2024/03/05 16:16:58;;;;;;;5.4;3.7;;;;;;;;;;;;;
2024/03/05 16:19:23;;;;;;;4.8;3.2;;;;;;;;;;;;;
2024/03/05 16:21:49;;;;;;;5.1;3.1;;;;;;;;;;;;;
2024/03/05 16:24:13;;;;;;;4.4;2.7;;;;;;;;;;;;;
2024/03/05 16:26:38;;;;;;;3.8;3.1;;;;;;;;;;;;;
2024/03/05 16:29:03;;;;;;;3.5;2.8;;;;;;;;;;;;;
2024/03/05 16:31:28;;;;;;;5.8;4;;;;;;;;;;;;;
2024/03/05 16:33:53;;;;;;;4.9;3.7;;;;;;;;;;;;;
2024/03/05 16:36:19;;;;;;;5.3;4;;;;;;;;;;;;;
2024/03/05 16:38:43;;;;;;;5.8;4;;;;;;;;;;;;;
2024/03/05 16:41:09;;;;;;;5.6;3.6;;;;;;;;;;;;;
2024/03/05 16:43:34;;;;;;;5.9;3.7;;;;;;;;;;;;;
2024/03/05 16:45:59;;;;;;;5.6;4.3;;;;;;;;;;;;;
2024/03/05 16:48:24;;;;;;;4.8;3.7;;;;;;;;;;;;;
2024/03/05 16:50:49;;;;;;;6.4;3.9;;;;;;;;;;;;;
2024/03/05 16:53:15;;;;;;;6.4;4.7;;;;;;;;;;;;;
2024/03/05 16:55:41;;;;;;;5;3.6;;;;;;;;;;;;;
2024/03/05 16:58:05;;;;;;;5.7;3.6;;;;;;;;;;;;;
2024/03/05 17:00:34;;;;;;;4;2.9;;;;;;;;;;;;;
2024/03/05 17:02:59;;;;;;;4.4;3.2;;;;;;;;;;;;;
2024/03/05 17:05:20;;;;;;;5.3;3.3;;;;;;;;;;;;;
2024/03/05 17:07:45;;;;;;;4;3.2;;;;;;;;;;;;;
2024/03/05 17:10:13;;;;;;;8.6;5.5;;;;;;;;;;;;;
2024/03/05 17:12:36;;;;;;;8.8;5.6;;;;;;;;;;;;;
2024/03/05 17:15:00;;;;;;;10.6;5.8;;;;;;;;;;;;;
2024/03/05 17:17:26;;;;;;;10.5;5.9;;;;;;;;;;;;;
2024/03/05 17:19:55;;;;;;;7.7;5;;;;;;;;;;;;;
2024/03/05 17:22:16;;;;;;;7.4;4.9;;;;;;;;;;;;;
2024/03/05 17:24:41;;;;;;;9.4;5.8;;;;;;;;;;;;;
2024/03/05 17:27:06;;;;;;;10.7;6.6;;;;;;;;;;;;;
2024/03/05 17:29:31;;;;;;;11.3;6.6;;;;;;;;;;;;;
2024/03/05 17:31:58;;;;;;;10.6;6.6;;;;;;;;;;;;;
2024/03/05 17:34:21;;;;;;;7.9;5.5;;;;;;;;;;;;;
2024/03/05 17:36:47;;;;;;;7.6;5;;;;;;;;;;;;;
2024/03/05 17:39:12;;;;;;;8.4;5.2;;;;;;;;;;;;;
2024/03/05 17:41:37;;;;;;;8.7;5.3;;;;;;;;;;;;;
2024/03/05 17:44:02;;;;;;;9.4;5.4;;;;;;;;;;;;;
2024/03/05 17:46:27;;;;;;;6.9;4.3;;;;;;;;;;;;;
2024/03/05 17:48:52;;;;;;;5.6;4.3;;;;;;;;;;;;;
2024/03/05 17:51:18;;;;;;;7;4.7;;;;;;;;;;;;;
2024/03/05 17:53:44;;;;;;;5.9;4.1;;;;;;;;;;;;;
2024/03/05 17:56:11;;;;;;;8.6;5.5;;;;;;;;;;;;;
2024/03/05 17:58:33;;;;;;;7.7;4.8;;;;;;;;;;;;;
2024/03/05 18:00:58;;;;;;;6.3;5.1;;;;;;;;;;;;;
2024/03/05 18:03:24;;;;;;;6.9;5.1;;;;;;;;;;;;;
2024/03/05 18:05:48;;;;;;;6.7;4.6;;;;;;;;;;;;;
2024/03/05 18:08:15;;;;;;;8.2;5;;;;;;;;;;;;;
2024/03/05 18:10:39;;;;;;;5.4;4.7;;;;;;;;;;;;;
2024/03/05 18:13:04;;;;;;;5.7;5.1;;;;;;;;;;;;;
2024/03/05 18:15:30;;;;;;;8.9;6.1;;;;;;;;;;;;;
2024/03/05 18:17:54;;;;;;;8.9;6;;;;;;;;;;;;;
2024/03/05 18:20:19;;;;;;;10.1;7.2;;;;;;;;;;;;;
2024/03/05 18:22:44;;;;;;;9.2;6.3;;;;;;;;;;;;;
2024/03/05 18:25:14;;;;;;;7.9;5.7;;;;;;;;;;;;;
2024/03/05 18:27:34;;;;;;;7.5;5.9;;;;;;;;;;;;;
2024/03/05 18:30:00;;;;;;;6.7;5.1;;;;;;;;;;;;;
2024/03/05 18:32:25;;;;;;;7.8;5.5;;;;;;;;;;;;;
2024/03/05 18:34:50;;;;;;;7.8;5.4;;;;;;;;;;;;;
2024/03/05 18:37:15;;;;;;;8.8;6.1;;;;;;;;;;;;;
2024/03/05 18:39:40;;;;;;;7.5;5.5;;;;;;;;;;;;;
2024/03/05 18:42:05;;;;;;;9.4;5;;;;;;;;;;;;;
2024/03/05 18:44:30;;;;;;;7.6;4.7;;;;;;;;;;;;;
2024/03/05 18:46:55;;;;;;;9;5.3;;;;;;;;;;;;;
2024/03/05 18:49:21;;;;;;;8.9;5.1;;;;;;;;;;;;;
2024/03/05 18:51:45;;;;;;;6.4;4.8;;;;;;;;;;;;;
2024/03/05 18:54:11;;;;;;;7.8;5.1;;;;;;;;;;;;;
2024/03/05 18:56:36;;;;;;;7.4;5;;;;;;;;;;;;;
2024/03/05 18:59:01;;;;;;;6.7;4.4;;;;;;;;;;;;;
2024/03/05 19:01:27;;;;;;;6.7;5.1;;;;;;;;;;;;;
2024/03/05 19:03:51;;;;;;;9.3;5.5;;;;;;;;;;;;;
2024/03/05 19:06:17;;;;;;;6.8;5.6;;;;;;;;;;;;;
2024/03/05 19:08:41;;;;;;;8.8;6.8;;;;;;;;;;;;;
2024/03/05 19:11:08;;;;;;;32.1;18.5;;;;;;;;;;;;;
2024/03/05 19:13:31;;;;;;;12.5;7.9;;;;;;;;;;;;;
2024/03/05 19:15:56;;;;;;;7.1;4.8;;;;;;;;;;;;;
2024/03/05 19:18:22;;;;;;;4.4;3.5;;;;;;;;;;;;;
2024/03/05 19:20:47;;;;;;;6.1;4.4;;;;;;;;;;;;;
2024/03/05 19:23:12;;;;;;;6.2;4.9;;;;;;;;;;;;;
2024/03/05 19:25:37;;;;;;;5.6;4.1;;;;;;;;;;;;;
2024/03/05 19:28:02;;;;;;;7;5.7;;;;;;;;;;;;;
2024/03/05 19:30:27;;;;;;;4.7;3.6;;;;;;;;;;;;;
2024/03/05 19:32:52;;;;;;;6.1;4.1;;;;;;;;;;;;;
2024/03/05 19:35:17;;;;;;;7.3;4;;;;;;;;;;;;;
2024/03/05 19:37:42;;;;;;;6.5;4.4;;;;;;;;;;;;;
2024/03/05 19:40:07;;;;;;;4.1;3.3;;;;;;;;;;;;;
2024/03/05 19:42:33;;;;;;;4.5;3.3;;;;;;;;;;;;;
2024/03/05 19:44:58;;;;;;;4.6;3.4;;;;;;;;;;;;;
2024/03/05 19:47:24;;;;;;;4.4;3.4;;;;;;;;;;;;;
2024/03/05 19:49:48;;;;;;;3.7;3.1;;;;;;;;;;;;;
2024/03/05 19:52:13;;;;;;;4.5;2.6;;;;;;;;;;;;;
2024/03/05 19:54:38;;;;;;;5.5;3.9;;;;;;;;;;;;;
2024/03/05 19:57:03;;;;;;;5.4;3.5;;;;;;;;;;;;;
2024/03/05 19:59:28;;;;;;;5.3;4;;;;;;;;;;;;;
2024/03/05 20:01:53;;;;;;;7;3.9;;;;;;;;;;;;;
2024/03/05 20:04:18;;;;;;;5;3.8;;;;;;;;;;;;;